sensor_id;sensor_type;location;lat;lon;timestamp;P1;durP1;ratioP1;P2;durP2;ratioP2
12429;SDS011;6279;42.192;24.326;2024-03-08T00:00:00;35.53;;;21.47;;
12429;SDS011;6279;42.192;24.326;2024-03-08T00:02:34;35.57;;;20.87;;
12429;SDS011;6279;42.192;24.326;2024-03-08T00:05:02;35.40;;;21.17;;
12429;SDS011;6279;42.192;24.326;2024-03-08T00:07:28;38.60;;;23.00;;
12429;SDS011;6279;42.192;24.326;2024-03-08T00:09:54;36.83;;;23.57;;
12429;SDS011;6279;42.192;24.326;2024-03-08T00:12:19;32.13;;;21.07;;
12429;SDS011;6279;42.192;24.326;2024-03-08T00:14:45;35.13;;;21.60;;
12429;SDS011;6279;42.192;24.326;2024-03-08T00:17:10;34.97;;;22.83;;
12429;SDS011;6279;42.192;24.326;2024-03-08T00:19:36;37.27;;;22.33;;
12429;SDS011;6279;42.192;24.326;2024-03-08T00:22:02;39.63;;;21.37;;
12429;SDS011;6279;42.192;24.326;2024-03-08T00:24:27;38.07;;;22.90;;
12429;SDS011;6279;42.192;24.326;2024-03-08T00:26:54;36.93;;;20.50;;
12429;SDS011;6279;42.192;24.326;2024-03-08T00:29:19;32.40;;;18.97;;
12429;SDS011;6279;42.192;24.326;2024-03-08T00:31:45;29.83;;;20.30;;
12429;SDS011;6279;42.192;24.326;2024-03-08T00:34:10;32.47;;;22.07;;
12429;SDS011;6279;42.192;24.326;2024-03-08T00:36:36;35.57;;;21.20;;
12429;SDS011;6279;42.192;24.326;2024-03-08T00:39:02;32.73;;;20.77;;
12429;SDS011;6279;42.192;24.326;2024-03-08T00:41:31;34.20;;;22.23;;
12429;SDS011;6279;42.192;24.326;2024-03-08T00:43:56;33.47;;;20.90;;
12429;SDS011;6279;42.192;24.326;2024-03-08T00:46:22;31.93;;;21.53;;
12429;SDS011;6279;42.192;24.326;2024-03-08T00:48:47;30.47;;;18.67;;
12429;SDS011;6279;42.192;24.326;2024-03-08T00:51:13;34.13;;;20.27;;
12429;SDS011;6279;42.192;24.326;2024-03-08T00:53:40;32.80;;;19.93;;
12429;SDS011;6279;42.192;24.326;2024-03-08T00:56:07;32.70;;;18.93;;
12429;SDS011;6279;42.192;24.326;2024-03-08T00:58:36;30.67;;;20.60;;
12429;SDS011;6279;42.192;24.326;2024-03-08T01:01:04;30.17;;;20.80;;
12429;SDS011;6279;42.192;24.326;2024-03-08T01:03:33;34.17;;;21.77;;
12429;SDS011;6279;42.192;24.326;2024-03-08T01:05:59;33.87;;;21.40;;
12429;SDS011;6279;42.192;24.326;2024-03-08T01:08:26;30.27;;;19.67;;
12429;SDS011;6279;42.192;24.326;2024-03-08T01:10:52;30.00;;;20.67;;
12429;SDS011;6279;42.192;24.326;2024-03-08T01:13:18;32.63;;;21.47;;
12429;SDS011;6279;42.192;24.326;2024-03-08T01:15:44;31.67;;;22.53;;
12429;SDS011;6279;42.192;24.326;2024-03-08T01:18:10;31.10;;;20.53;;
12429;SDS011;6279;42.192;24.326;2024-03-08T01:20:35;32.80;;;20.87;;
12429;SDS011;6279;42.192;24.326;2024-03-08T01:23:01;29.80;;;19.93;;
12429;SDS011;6279;42.192;24.326;2024-03-08T01:25:26;31.70;;;20.33;;
12429;SDS011;6279;42.192;24.326;2024-03-08T01:27:52;30.17;;;20.23;;
12429;SDS011;6279;42.192;24.326;2024-03-08T01:30:19;28.27;;;19.77;;
12429;SDS011;6279;42.192;24.326;2024-03-08T01:32:44;28.53;;;19.77;;
12429;SDS011;6279;42.192;24.326;2024-03-08T01:35:10;32.30;;;20.67;;
12429;SDS011;6279;42.192;24.326;2024-03-08T01:37:36;32.50;;;22.07;;
12429;SDS011;6279;42.192;24.326;2024-03-08T01:40:02;31.87;;;19.87;;
12429;SDS011;6279;42.192;24.326;2024-03-08T01:42:28;29.83;;;20.40;;
12429;SDS011;6279;42.192;24.326;2024-03-08T01:44:54;28.73;;;19.03;;
12429;SDS011;6279;42.192;24.326;2024-03-08T01:47:19;30.83;;;19.10;;
12429;SDS011;6279;42.192;24.326;2024-03-08T01:49:48;27.77;;;19.57;;
12429;SDS011;6279;42.192;24.326;2024-03-08T01:52:14;28.87;;;19.33;;
12429;SDS011;6279;42.192;24.326;2024-03-08T01:54:40;28.40;;;18.87;;
12429;SDS011;6279;42.192;24.326;2024-03-08T01:57:06;26.87;;;17.23;;
12429;SDS011;6279;42.192;24.326;2024-03-08T01:59:31;24.80;;;16.90;;
12429;SDS011;6279;42.192;24.326;2024-03-08T02:01:57;27.83;;;19.00;;
12429;SDS011;6279;42.192;24.326;2024-03-08T02:04:26;30.33;;;18.97;;
12429;SDS011;6279;42.192;24.326;2024-03-08T02:06:51;27.97;;;19.90;;
12429;SDS011;6279;42.192;24.326;2024-03-08T02:09:17;23.93;;;17.77;;
12429;SDS011;6279;42.192;24.326;2024-03-08T02:11:42;29.07;;;19.90;;
12429;SDS011;6279;42.192;24.326;2024-03-08T02:14:08;26.60;;;19.47;;
12429;SDS011;6279;42.192;24.326;2024-03-08T02:16:34;29.27;;;19.70;;
12429;SDS011;6279;42.192;24.326;2024-03-08T02:18:59;31.67;;;20.90;;
12429;SDS011;6279;42.192;24.326;2024-03-08T02:21:25;35.97;;;20.83;;
12429;SDS011;6279;42.192;24.326;2024-03-08T02:23:50;29.43;;;20.07;;
12429;SDS011;6279;42.192;24.326;2024-03-08T02:26:17;30.73;;;21.03;;
12429;SDS011;6279;42.192;24.326;2024-03-08T02:28:43;36.10;;;20.73;;
12429;SDS011;6279;42.192;24.326;2024-03-08T02:31:09;35.60;;;21.57;;
12429;SDS011;6279;42.192;24.326;2024-03-08T02:33:35;31.03;;;21.53;;
12429;SDS011;6279;42.192;24.326;2024-03-08T02:36:01;30.07;;;21.00;;
12429;SDS011;6279;42.192;24.326;2024-03-08T02:38:26;32.43;;;22.00;;
12429;SDS011;6279;42.192;24.326;2024-03-08T02:40:53;33.67;;;21.47;;
12429;SDS011;6279;42.192;24.326;2024-03-08T02:43:19;36.77;;;22.20;;
12429;SDS011;6279;42.192;24.326;2024-03-08T02:45:47;31.97;;;21.23;;
12429;SDS011;6279;42.192;24.326;2024-03-08T02:48:12;37.03;;;22.37;;
12429;SDS011;6279;42.192;24.326;2024-03-08T02:50:38;37.97;;;23.30;;
12429;SDS011;6279;42.192;24.326;2024-03-08T02:53:10;38.90;;;22.63;;
12429;SDS011;6279;42.192;24.326;2024-03-08T02:55:37;36.40;;;22.57;;
12429;SDS011;6279;42.192;24.326;2024-03-08T02:58:03;42.53;;;22.97;;
12429;SDS011;6279;42.192;24.326;2024-03-08T03:00:29;33.00;;;19.77;;
12429;SDS011;6279;42.192;24.326;2024-03-08T03:02:59;32.73;;;21.50;;
12429;SDS011;6279;42.192;24.326;2024-03-08T03:05:24;34.70;;;20.83;;
12429;SDS011;6279;42.192;24.326;2024-03-08T03:07:50;32.13;;;20.90;;
12429;SDS011;6279;42.192;24.326;2024-03-08T03:10:16;29.33;;;21.33;;
12429;SDS011;6279;42.192;24.326;2024-03-08T03:12:42;32.33;;;20.60;;
12429;SDS011;6279;42.192;24.326;2024-03-08T03:15:08;32.57;;;20.60;;
12429;SDS011;6279;42.192;24.326;2024-03-08T03:17:33;30.03;;;20.03;;
12429;SDS011;6279;42.192;24.326;2024-03-08T03:19:59;29.67;;;19.83;;
12429;SDS011;6279;42.192;24.326;2024-03-08T03:22:28;27.10;;;18.60;;
12429;SDS011;6279;42.192;24.326;2024-03-08T03:24:55;29.40;;;18.77;;
12429;SDS011;6279;42.192;24.326;2024-03-08T03:27:23;29.27;;;20.27;;
12429;SDS011;6279;42.192;24.326;2024-03-08T03:29:49;28.53;;;19.57;;
12429;SDS011;6279;42.192;24.326;2024-03-08T03:32:17;31.53;;;20.60;;
12429;SDS011;6279;42.192;24.326;2024-03-08T03:34:43;28.83;;;20.00;;
12429;SDS011;6279;42.192;24.326;2024-03-08T03:37:09;30.90;;;20.53;;
12429;SDS011;6279;42.192;24.326;2024-03-08T03:39:37;31.27;;;20.53;;
12429;SDS011;6279;42.192;24.326;2024-03-08T03:42:18;33.20;;;20.60;;
12429;SDS011;6279;42.192;24.326;2024-03-08T03:44:47;33.57;;;21.20;;
12429;SDS011;6279;42.192;24.326;2024-03-08T03:47:13;30.73;;;19.17;;
12429;SDS011;6279;42.192;24.326;2024-03-08T03:49:40;42.27;;;22.40;;
12429;SDS011;6279;42.192;24.326;2024-03-08T03:52:06;39.83;;;21.57;;
12429;SDS011;6279;42.192;24.326;2024-03-08T03:54:31;37.73;;;22.90;;
12429;SDS011;6279;42.192;24.326;2024-03-08T03:56:58;45.60;;;24.30;;
12429;SDS011;6279;42.192;24.326;2024-03-08T03:59:23;40.77;;;22.87;;
12429;SDS011;6279;42.192;24.326;2024-03-08T04:01:49;45.73;;;23.67;;
12429;SDS011;6279;42.192;24.326;2024-03-08T04:04:14;41.80;;;25.03;;
12429;SDS011;6279;42.192;24.326;2024-03-08T04:06:40;41.13;;;22.03;;
12429;SDS011;6279;42.192;24.326;2024-03-08T04:09:06;42.07;;;23.53;;
12429;SDS011;6279;42.192;24.326;2024-03-08T04:11:31;42.43;;;22.67;;
12429;SDS011;6279;42.192;24.326;2024-03-08T04:13:57;40.87;;;23.33;;
12429;SDS011;6279;42.192;24.326;2024-03-08T04:16:22;39.73;;;23.10;;
12429;SDS011;6279;42.192;24.326;2024-03-08T04:18:48;37.33;;;22.43;;
12429;SDS011;6279;42.192;24.326;2024-03-08T04:21:14;32.23;;;20.37;;
12429;SDS011;6279;42.192;24.326;2024-03-08T04:23:40;35.47;;;20.13;;
12429;SDS011;6279;42.192;24.326;2024-03-08T04:26:05;33.23;;;20.70;;
12429;SDS011;6279;42.192;24.326;2024-03-08T04:28:32;34.60;;;21.50;;
12429;SDS011;6279;42.192;24.326;2024-03-08T04:30:57;39.97;;;22.60;;
12429;SDS011;6279;42.192;24.326;2024-03-08T04:33:25;35.73;;;21.00;;
12429;SDS011;6279;42.192;24.326;2024-03-08T04:35:51;28.77;;;18.87;;
12429;SDS011;6279;42.192;24.326;2024-03-08T04:38:16;34.30;;;20.13;;
12429;SDS011;6279;42.192;24.326;2024-03-08T04:40:42;33.67;;;20.00;;
12429;SDS011;6279;42.192;24.326;2024-03-08T04:43:08;29.37;;;19.43;;
12429;SDS011;6279;42.192;24.326;2024-03-08T04:45:34;24.43;;;16.20;;
12429;SDS011;6279;42.192;24.326;2024-03-08T04:47:59;33.00;;;21.30;;
12429;SDS011;6279;42.192;24.326;2024-03-08T04:50:25;29.33;;;18.60;;
12429;SDS011;6279;42.192;24.326;2024-03-08T04:52:50;27.50;;;19.40;;
12429;SDS011;6279;42.192;24.326;2024-03-08T04:55:16;26.87;;;19.33;;
12429;SDS011;6279;42.192;24.326;2024-03-08T04:57:41;28.10;;;19.17;;
12429;SDS011;6279;42.192;24.326;2024-03-08T05:00:09;33.47;;;21.30;;
12429;SDS011;6279;42.192;24.326;2024-03-08T05:02:39;31.37;;;19.20;;
12429;SDS011;6279;42.192;24.326;2024-03-08T05:05:05;28.10;;;17.87;;
12429;SDS011;6279;42.192;24.326;2024-03-08T05:07:37;25.80;;;18.20;;
12429;SDS011;6279;42.192;24.326;2024-03-08T05:10:06;30.07;;;20.10;;
12429;SDS011;6279;42.192;24.326;2024-03-08T05:12:32;28.10;;;19.87;;
12429;SDS011;6279;42.192;24.326;2024-03-08T05:14:58;29.37;;;20.73;;
12429;SDS011;6279;42.192;24.326;2024-03-08T05:17:23;29.20;;;20.63;;
12429;SDS011;6279;42.192;24.326;2024-03-08T05:19:49;29.13;;;19.87;;
12429;SDS011;6279;42.192;24.326;2024-03-08T05:22:14;33.93;;;22.87;;
12429;SDS011;6279;42.192;24.326;2024-03-08T05:24:40;32.37;;;22.30;;
12429;SDS011;6279;42.192;24.326;2024-03-08T05:27:05;32.63;;;20.80;;
12429;SDS011;6279;42.192;24.326;2024-03-08T05:29:31;29.77;;;20.87;;
12429;SDS011;6279;42.192;24.326;2024-03-08T05:31:57;32.93;;;21.00;;
12429;SDS011;6279;42.192;24.326;2024-03-08T05:34:23;28.50;;;17.70;;
12429;SDS011;6279;42.192;24.326;2024-03-08T05:36:49;26.40;;;16.43;;
12429;SDS011;6279;42.192;24.326;2024-03-08T05:39:15;23.23;;;15.77;;
12429;SDS011;6279;42.192;24.326;2024-03-08T05:41:42;29.70;;;20.13;;
12429;SDS011;6279;42.192;24.326;2024-03-08T05:44:08;28.43;;;20.53;;
12429;SDS011;6279;42.192;24.326;2024-03-08T05:46:34;32.10;;;19.20;;
12429;SDS011;6279;42.192;24.326;2024-03-08T05:49:01;28.73;;;19.10;;
12429;SDS011;6279;42.192;24.326;2024-03-08T05:51:35;27.87;;;19.00;;
12429;SDS011;6279;42.192;24.326;2024-03-08T05:54:04;30.47;;;19.80;;
12429;SDS011;6279;42.192;24.326;2024-03-08T05:56:31;28.67;;;18.53;;
12429;SDS011;6279;42.192;24.326;2024-03-08T05:58:57;25.37;;;18.17;;
12429;SDS011;6279;42.192;24.326;2024-03-08T06:01:25;26.70;;;19.43;;
12429;SDS011;6279;42.192;24.326;2024-03-08T06:03:54;27.47;;;18.20;;
12429;SDS011;6279;42.192;24.326;2024-03-08T06:06:23;30.53;;;20.30;;
12429;SDS011;6279;42.192;24.326;2024-03-08T06:08:50;28.47;;;19.67;;
12429;SDS011;6279;42.192;24.326;2024-03-08T06:11:16;37.40;;;24.63;;
12429;SDS011;6279;42.192;24.326;2024-03-08T06:13:43;28.97;;;19.07;;
12429;SDS011;6279;42.192;24.326;2024-03-08T06:16:09;32.23;;;22.07;;
12429;SDS011;6279;42.192;24.326;2024-03-08T06:18:34;31.70;;;19.97;;
12429;SDS011;6279;42.192;24.326;2024-03-08T06:21:03;26.47;;;19.33;;
12429;SDS011;6279;42.192;24.326;2024-03-08T06:23:30;26.60;;;18.03;;
12429;SDS011;6279;42.192;24.326;2024-03-08T06:25:59;29.23;;;19.37;;
12429;SDS011;6279;42.192;24.326;2024-03-08T06:28:24;27.80;;;18.10;;
12429;SDS011;6279;42.192;24.326;2024-03-08T06:30:50;24.60;;;17.83;;
12429;SDS011;6279;42.192;24.326;2024-03-08T06:33:16;28.87;;;17.30;;
12429;SDS011;6279;42.192;24.326;2024-03-08T06:35:44;28.23;;;18.77;;
12429;SDS011;6279;42.192;24.326;2024-03-08T06:38:10;30.03;;;19.63;;
12429;SDS011;6279;42.192;24.326;2024-03-08T06:40:36;28.90;;;18.50;;
12429;SDS011;6279;42.192;24.326;2024-03-08T06:43:02;31.40;;;19.87;;
12429;SDS011;6279;42.192;24.326;2024-03-08T06:45:30;29.40;;;19.37;;
12429;SDS011;6279;42.192;24.326;2024-03-08T06:47:56;32.10;;;20.33;;
12429;SDS011;6279;42.192;24.326;2024-03-08T06:50:22;27.10;;;18.93;;
12429;SDS011;6279;42.192;24.326;2024-03-08T06:52:47;29.47;;;19.90;;
12429;SDS011;6279;42.192;24.326;2024-03-08T06:55:17;28.97;;;19.80;;
12429;SDS011;6279;42.192;24.326;2024-03-08T06:57:43;27.93;;;18.83;;
12429;SDS011;6279;42.192;24.326;2024-03-08T07:00:08;28.70;;;19.63;;
12429;SDS011;6279;42.192;24.326;2024-03-08T07:02:35;29.80;;;19.57;;
12429;SDS011;6279;42.192;24.326;2024-03-08T07:05:01;26.17;;;17.20;;
12429;SDS011;6279;42.192;24.326;2024-03-08T07:07:28;24.53;;;17.17;;
12429;SDS011;6279;42.192;24.326;2024-03-08T07:09:55;21.93;;;15.13;;
12429;SDS011;6279;42.192;24.326;2024-03-08T07:12:21;22.30;;;14.77;;
12429;SDS011;6279;42.192;24.326;2024-03-08T07:14:48;21.40;;;14.43;;
12429;SDS011;6279;42.192;24.326;2024-03-08T07:17:14;26.83;;;17.63;;
12429;SDS011;6279;42.192;24.326;2024-03-08T07:19:39;23.07;;;16.80;;
12429;SDS011;6279;42.192;24.326;2024-03-08T07:22:05;20.43;;;14.93;;
12429;SDS011;6279;42.192;24.326;2024-03-08T07:24:33;20.20;;;15.00;;
12429;SDS011;6279;42.192;24.326;2024-03-08T07:27:05;22.37;;;15.93;;
12429;SDS011;6279;42.192;24.326;2024-03-08T07:29:34;20.57;;;14.33;;
12429;SDS011;6279;42.192;24.326;2024-03-08T07:32:00;20.13;;;13.83;;
12429;SDS011;6279;42.192;24.326;2024-03-08T07:34:25;19.97;;;14.70;;
12429;SDS011;6279;42.192;24.326;2024-03-08T07:36:51;19.63;;;13.47;;
12429;SDS011;6279;42.192;24.326;2024-03-08T07:39:16;22.10;;;15.47;;
12429;SDS011;6279;42.192;24.326;2024-03-08T07:41:42;25.93;;;15.77;;
12429;SDS011;6279;42.192;24.326;2024-03-08T07:44:07;17.97;;;14.07;;
12429;SDS011;6279;42.192;24.326;2024-03-08T07:46:34;18.90;;;13.63;;
12429;SDS011;6279;42.192;24.326;2024-03-08T07:49:00;23.37;;;14.07;;
12429;SDS011;6279;42.192;24.326;2024-03-08T07:51:25;18.30;;;12.57;;
12429;SDS011;6279;42.192;24.326;2024-03-08T07:53:51;21.13;;;14.77;;
12429;SDS011;6279;42.192;24.326;2024-03-08T07:56:16;19.90;;;15.13;;
12429;SDS011;6279;42.192;24.326;2024-03-08T07:58:43;19.47;;;14.23;;
12429;SDS011;6279;42.192;24.326;2024-03-08T08:01:27;19.30;;;14.60;;
12429;SDS011;6279;42.192;24.326;2024-03-08T08:03:53;17.50;;;13.70;;
12429;SDS011;6279;42.192;24.326;2024-03-08T08:06:18;17.33;;;12.93;;
12429;SDS011;6279;42.192;24.326;2024-03-08T08:08:44;15.17;;;12.33;;
12429;SDS011;6279;42.192;24.326;2024-03-08T08:11:10;20.23;;;14.43;;
12429;SDS011;6279;42.192;24.326;2024-03-08T08:13:40;18.27;;;14.20;;
12429;SDS011;6279;42.192;24.326;2024-03-08T08:16:08;19.50;;;13.77;;
12429;SDS011;6279;42.192;24.326;2024-03-08T08:18:34;15.00;;;11.77;;
12429;SDS011;6279;42.192;24.326;2024-03-08T08:21:01;17.97;;;13.30;;
12429;SDS011;6279;42.192;24.326;2024-03-08T08:23:27;14.67;;;12.23;;
12429;SDS011;6279;42.192;24.326;2024-03-08T08:25:52;18.33;;;13.33;;
12429;SDS011;6279;42.192;24.326;2024-03-08T08:28:18;19.77;;;15.37;;
12429;SDS011;6279;42.192;24.326;2024-03-08T08:30:44;19.03;;;14.30;;
12429;SDS011;6279;42.192;24.326;2024-03-08T08:33:09;20.13;;;14.73;;
12429;SDS011;6279;42.192;24.326;2024-03-08T08:35:35;18.63;;;13.23;;
12429;SDS011;6279;42.192;24.326;2024-03-08T08:38:02;18.87;;;13.90;;
12429;SDS011;6279;42.192;24.326;2024-03-08T08:40:28;17.50;;;13.67;;
12429;SDS011;6279;42.192;24.326;2024-03-08T08:42:55;17.23;;;13.37;;
12429;SDS011;6279;42.192;24.326;2024-03-08T08:45:24;24.50;;;19.17;;
12429;SDS011;6279;42.192;24.326;2024-03-08T08:47:50;20.63;;;15.17;;
12429;SDS011;6279;42.192;24.326;2024-03-08T08:50:16;16.90;;;13.40;;
12429;SDS011;6279;42.192;24.326;2024-03-08T08:52:48;17.70;;;12.97;;
12429;SDS011;6279;42.192;24.326;2024-03-08T08:55:13;19.50;;;14.20;;
12429;SDS011;6279;42.192;24.326;2024-03-08T08:57:42;18.67;;;14.27;;
12429;SDS011;6279;42.192;24.326;2024-03-08T09:00:07;19.13;;;13.97;;
12429;SDS011;6279;42.192;24.326;2024-03-08T09:02:34;17.07;;;12.80;;
12429;SDS011;6279;42.192;24.326;2024-03-08T09:05:00;17.17;;;13.50;;
12429;SDS011;6279;42.192;24.326;2024-03-08T09:07:26;16.97;;;13.37;;
12429;SDS011;6279;42.192;24.326;2024-03-08T09:09:53;18.90;;;14.87;;
12429;SDS011;6279;42.192;24.326;2024-03-08T09:12:22;17.17;;;12.63;;
12429;SDS011;6279;42.192;24.326;2024-03-08T09:14:48;15.97;;;12.40;;
12429;SDS011;6279;42.192;24.326;2024-03-08T09:17:14;15.60;;;12.60;;
12429;SDS011;6279;42.192;24.326;2024-03-08T09:19:42;14.50;;;10.53;;
12429;SDS011;6279;42.192;24.326;2024-03-08T09:22:08;15.00;;;11.40;;
12429;SDS011;6279;42.192;24.326;2024-03-08T09:24:33;14.77;;;11.83;;
12429;SDS011;6279;42.192;24.326;2024-03-08T09:26:59;15.40;;;13.00;;
12429;SDS011;6279;42.192;24.326;2024-03-08T09:29:24;13.00;;;9.37;;
12429;SDS011;6279;42.192;24.326;2024-03-08T09:31:50;12.17;;;9.00;;
12429;SDS011;6279;42.192;24.326;2024-03-08T09:34:16;17.87;;;12.10;;
12429;SDS011;6279;42.192;24.326;2024-03-08T09:36:43;11.80;;;9.90;;
12429;SDS011;6279;42.192;24.326;2024-03-08T09:39:09;12.90;;;10.37;;
12429;SDS011;6279;42.192;24.326;2024-03-08T09:41:34;13.50;;;11.23;;
12429;SDS011;6279;42.192;24.326;2024-03-08T09:44:00;12.00;;;9.40;;
12429;SDS011;6279;42.192;24.326;2024-03-08T09:46:26;13.97;;;10.50;;
12429;SDS011;6279;42.192;24.326;2024-03-08T09:48:54;17.00;;;10.63;;
12429;SDS011;6279;42.192;24.326;2024-03-08T09:51:21;10.70;;;9.03;;
12429;SDS011;6279;42.192;24.326;2024-03-08T09:53:52;13.20;;;10.00;;
12429;SDS011;6279;42.192;24.326;2024-03-08T09:56:19;13.53;;;9.43;;
12429;SDS011;6279;42.192;24.326;2024-03-08T09:58:48;15.27;;;10.03;;
12429;SDS011;6279;42.192;24.326;2024-03-08T10:01:43;14.73;;;9.57;;
12429;SDS011;6279;42.192;24.326;2024-03-08T10:04:09;15.10;;;10.80;;
12429;SDS011;6279;42.192;24.326;2024-03-08T10:06:35;14.90;;;11.00;;
12429;SDS011;6279;42.192;24.326;2024-03-08T10:09:02;11.17;;;7.63;;
12429;SDS011;6279;42.192;24.326;2024-03-08T10:11:27;11.47;;;9.33;;
12429;SDS011;6279;42.192;24.326;2024-03-08T10:13:54;12.70;;;8.40;;
12429;SDS011;6279;42.192;24.326;2024-03-08T10:16:19;11.87;;;8.20;;
12429;SDS011;6279;42.192;24.326;2024-03-08T10:18:45;11.07;;;8.90;;
12429;SDS011;6279;42.192;24.326;2024-03-08T10:21:11;12.43;;;10.03;;
12429;SDS011;6279;42.192;24.326;2024-03-08T10:23:37;14.73;;;10.30;;
12429;SDS011;6279;42.192;24.326;2024-03-08T10:26:12;13.40;;;10.30;;
12429;SDS011;6279;42.192;24.326;2024-03-08T10:28:46;10.80;;;9.23;;
12429;SDS011;6279;42.192;24.326;2024-03-08T10:31:17;12.63;;;9.53;;
12429;SDS011;6279;42.192;24.326;2024-03-08T10:33:44;10.93;;;9.20;;
12429;SDS011;6279;42.192;24.326;2024-03-08T10:36:11;12.07;;;9.40;;
12429;SDS011;6279;42.192;24.326;2024-03-08T10:38:38;11.17;;;9.77;;
12429;SDS011;6279;42.192;24.326;2024-03-08T10:41:07;14.00;;;9.37;;
12429;SDS011;6279;42.192;24.326;2024-03-08T10:49:20;10.50;;;8.97;;
12429;SDS011;6279;42.192;24.326;2024-03-08T10:52:15;14.30;;;9.27;;
12429;SDS011;6279;42.192;24.326;2024-03-08T10:54:42;13.90;;;9.63;;
12429;SDS011;6279;42.192;24.326;2024-03-08T10:57:08;12.53;;;9.67;;
12429;SDS011;6279;42.192;24.326;2024-03-08T10:59:35;14.10;;;8.50;;
12429;SDS011;6279;42.192;24.326;2024-03-08T11:02:01;12.50;;;9.20;;
12429;SDS011;6279;42.192;24.326;2024-03-08T11:04:26;11.27;;;8.43;;
12429;SDS011;6279;42.192;24.326;2024-03-08T11:06:54;12.53;;;8.00;;
12429;SDS011;6279;42.192;24.326;2024-03-08T11:09:47;9.53;;;7.63;;
12429;SDS011;6279;42.192;24.326;2024-03-08T11:14:50;10.43;;;8.87;;
12429;SDS011;6279;42.192;24.326;2024-03-08T11:17:20;10.47;;;8.40;;
12429;SDS011;6279;42.192;24.326;2024-03-08T11:19:59;12.27;;;8.67;;
12429;SDS011;6279;42.192;24.326;2024-03-08T11:22:32;11.30;;;8.43;;
12429;SDS011;6279;42.192;24.326;2024-03-08T11:25:02;14.63;;;9.07;;
12429;SDS011;6279;42.192;24.326;2024-03-08T11:27:33;10.07;;;8.10;;
12429;SDS011;6279;42.192;24.326;2024-03-08T11:30:03;9.77;;;7.50;;
12429;SDS011;6279;42.192;24.326;2024-03-08T11:32:50;12.90;;;7.83;;
12429;SDS011;6279;42.192;24.326;2024-03-08T11:35:21;8.10;;;6.93;;
12429;SDS011;6279;42.192;24.326;2024-03-08T11:37:48;9.63;;;6.30;;
12429;SDS011;6279;42.192;24.326;2024-03-08T11:40:14;7.47;;;6.17;;
12429;SDS011;6279;42.192;24.326;2024-03-08T11:42:44;9.00;;;6.23;;
12429;SDS011;6279;42.192;24.326;2024-03-08T11:45:12;8.13;;;7.23;;
12429;SDS011;6279;42.192;24.326;2024-03-08T11:47:38;9.50;;;7.47;;
12429;SDS011;6279;42.192;24.326;2024-03-08T11:50:07;9.33;;;7.07;;
12429;SDS011;6279;42.192;24.326;2024-03-08T11:52:36;10.10;;;7.40;;
12429;SDS011;6279;42.192;24.326;2024-03-08T11:55:04;8.97;;;8.07;;
12429;SDS011;6279;42.192;24.326;2024-03-08T11:57:30;10.63;;;8.80;;
12429;SDS011;6279;42.192;24.326;2024-03-08T11:59:57;10.00;;;8.13;;
12429;SDS011;6279;42.192;24.326;2024-03-08T12:02:30;10.53;;;8.30;;
12429;SDS011;6279;42.192;24.326;2024-03-08T12:04:56;10.40;;;7.90;;
12429;SDS011;6279;42.192;24.326;2024-03-08T12:07:23;9.07;;;7.37;;
12429;SDS011;6279;42.192;24.326;2024-03-08T12:12:46;10.63;;;9.10;;
12429;SDS011;6279;42.192;24.326;2024-03-08T12:15:13;11.33;;;8.70;;
12429;SDS011;6279;42.192;24.326;2024-03-08T12:17:40;10.80;;;8.73;;
12429;SDS011;6279;42.192;24.326;2024-03-08T12:20:14;10.83;;;7.87;;
12429;SDS011;6279;42.192;24.326;2024-03-08T12:22:42;10.07;;;7.80;;
12429;SDS011;6279;42.192;24.326;2024-03-08T12:25:11;9.27;;;7.97;;
12429;SDS011;6279;42.192;24.326;2024-03-08T12:27:40;9.63;;;7.60;;
12429;SDS011;6279;42.192;24.326;2024-03-08T12:35:20;9.87;;;7.80;;
12429;SDS011;6279;42.192;24.326;2024-03-08T12:37:48;11.83;;;8.87;;
12429;SDS011;6279;42.192;24.326;2024-03-08T12:40:17;11.77;;;7.83;;
12429;SDS011;6279;42.192;24.326;2024-03-08T12:42:43;12.77;;;8.27;;
12429;SDS011;6279;42.192;24.326;2024-03-08T12:45:09;13.27;;;9.57;;
12429;SDS011;6279;42.192;24.326;2024-03-08T12:47:35;17.47;;;10.50;;
12429;SDS011;6279;42.192;24.326;2024-03-08T12:50:01;13.53;;;8.83;;
12429;SDS011;6279;42.192;24.326;2024-03-08T12:52:28;20.90;;;12.07;;
12429;SDS011;6279;42.192;24.326;2024-03-08T12:54:56;11.87;;;7.60;;
12429;SDS011;6279;42.192;24.326;2024-03-08T12:57:28;16.33;;;10.50;;
12429;SDS011;6279;42.192;24.326;2024-03-08T12:59:56;10.30;;;8.20;;
12429;SDS011;6279;42.192;24.326;2024-03-08T13:02:21;20.33;;;13.87;;
12429;SDS011;6279;42.192;24.326;2024-03-08T13:04:49;17.27;;;9.83;;
12429;SDS011;6279;42.192;24.326;2024-03-08T13:07:20;15.93;;;10.93;;
12429;SDS011;6279;42.192;24.326;2024-03-08T13:09:46;16.07;;;10.90;;
12429;SDS011;6279;42.192;24.326;2024-03-08T13:12:12;16.30;;;11.73;;
12429;SDS011;6279;42.192;24.326;2024-03-08T13:14:37;15.83;;;10.63;;
12429;SDS011;6279;42.192;24.326;2024-03-08T13:17:02;21.43;;;13.90;;
12429;SDS011;6279;42.192;24.326;2024-03-08T13:19:29;19.90;;;12.50;;
12429;SDS011;6279;42.192;24.326;2024-03-08T13:21:55;20.23;;;11.47;;
12429;SDS011;6279;42.192;24.326;2024-03-08T13:24:21;14.73;;;8.57;;
12429;SDS011;6279;42.192;24.326;2024-03-08T13:26:47;12.40;;;8.90;;
12429;SDS011;6279;42.192;24.326;2024-03-08T13:29:13;17.23;;;10.87;;
12429;SDS011;6279;42.192;24.326;2024-03-08T13:31:39;18.57;;;11.80;;
12429;SDS011;6279;42.192;24.326;2024-03-08T13:34:06;19.03;;;11.63;;
12429;SDS011;6279;42.192;24.326;2024-03-08T13:36:34;13.20;;;8.73;;
12429;SDS011;6279;42.192;24.326;2024-03-08T13:39:04;12.57;;;8.77;;
12429;SDS011;6279;42.192;24.326;2024-03-08T13:41:40;12.50;;;8.90;;
12429;SDS011;6279;42.192;24.326;2024-03-08T13:44:06;11.23;;;8.70;;
12429;SDS011;6279;42.192;24.326;2024-03-08T13:46:32;11.87;;;7.93;;
12429;SDS011;6279;42.192;24.326;2024-03-08T13:48:58;12.80;;;7.90;;
12429;SDS011;6279;42.192;24.326;2024-03-08T13:51:31;11.50;;;8.93;;
12429;SDS011;6279;42.192;24.326;2024-03-08T13:53:57;12.77;;;9.53;;
12429;SDS011;6279;42.192;24.326;2024-03-08T13:56:23;18.30;;;11.13;;
12429;SDS011;6279;42.192;24.326;2024-03-08T13:58:48;16.30;;;11.53;;
12429;SDS011;6279;42.192;24.326;2024-03-08T14:01:13;20.47;;;13.10;;
12429;SDS011;6279;42.192;24.326;2024-03-08T14:03:43;14.23;;;10.47;;
12429;SDS011;6279;42.192;24.326;2024-03-08T14:06:09;14.93;;;10.87;;
12429;SDS011;6279;42.192;24.326;2024-03-08T14:08:37;17.13;;;10.80;;
12429;SDS011;6279;42.192;24.326;2024-03-08T14:11:05;13.63;;;9.30;;
12429;SDS011;6279;42.192;24.326;2024-03-08T14:13:43;13.57;;;10.40;;
12429;SDS011;6279;42.192;24.326;2024-03-08T14:16:12;13.50;;;9.00;;
12429;SDS011;6279;42.192;24.326;2024-03-08T14:18:38;24.40;;;10.10;;
12429;SDS011;6279;42.192;24.326;2024-03-08T14:21:04;15.47;;;10.60;;
12429;SDS011;6279;42.192;24.326;2024-03-08T14:23:36;15.43;;;10.13;;
12429;SDS011;6279;42.192;24.326;2024-03-08T14:26:02;12.17;;;9.47;;
12429;SDS011;6279;42.192;24.326;2024-03-08T14:28:29;16.80;;;10.40;;
12429;SDS011;6279;42.192;24.326;2024-03-08T14:30:54;14.10;;;11.17;;
12429;SDS011;6279;42.192;24.326;2024-03-08T14:33:23;13.53;;;9.23;;
12429;SDS011;6279;42.192;24.326;2024-03-08T14:35:50;14.60;;;11.47;;
12429;SDS011;6279;42.192;24.326;2024-03-08T14:38:16;18.83;;;11.20;;
12429;SDS011;6279;42.192;24.326;2024-03-08T14:40:42;20.93;;;10.97;;